sensor_id;sensor_type;location;lat;lon;timestamp;P1;durP1;ratioP1;P2;durP2;ratioP2
54454;SDS011;40364;52.270;10.546;2023-02-13T00:00:19;21.27;;;8.90;;
54454;SDS011;40364;52.270;10.546;2023-02-13T00:02:48;18.23;;;7.50;;
54454;SDS011;40364;52.270;10.546;2023-02-13T00:05:15;18.98;;;8.48;;
54454;SDS011;40364;52.270;10.546;2023-02-13T00:07:42;19.05;;;8.45;;
54454;SDS011;40364;52.270;10.546;2023-02-13T00:10:09;19.80;;;8.18;;
54454;SDS011;40364;52.270;10.546;2023-02-13T00:12:36;21.90;;;8.63;;
54454;SDS011;40364;52.270;10.546;2023-02-13T00:15:04;27.42;;;7.88;;
54454;SDS011;40364;52.270;10.546;2023-02-13T00:17:31;18.60;;;7.82;;
54454;SDS011;40364;52.270;10.546;2023-02-13T00:19:58;17.83;;;7.63;;
54454;SDS011;40364;52.270;10.546;2023-02-13T00:22:25;17.38;;;7.88;;
54454;SDS011;40364;52.270;10.546;2023-02-13T00:24:52;18.35;;;8.55;;
54454;SDS011;40364;52.270;10.546;2023-02-13T00:27:18;18.60;;;8.32;;
54454;SDS011;40364;52.270;10.546;2023-02-13T00:29:45;16.15;;;8.00;;
54454;SDS011;40364;52.270;10.546;2023-02-13T00:32:13;16.27;;;7.20;;
54454;SDS011;40364;52.270;10.546;2023-02-13T00:34:40;22.10;;;8.82;;
54454;SDS011;40364;52.270;10.546;2023-02-13T00:37:08;14.25;;;6.97;;
54454;SDS011;40364;52.270;10.546;2023-02-13T00:39:34;20.08;;;8.18;;
54454;SDS011;40364;52.270;10.546;2023-02-13T00:42:01;17.27;;;7.03;;
54454;SDS011;40364;52.270;10.546;2023-02-13T00:44:28;25.33;;;8.27;;
54454;SDS011;40364;52.270;10.546;2023-02-13T00:46:54;20.15;;;7.35;;
54454;SDS011;40364;52.270;10.546;2023-02-13T00:49:22;17.50;;;7.50;;
54454;SDS011;40364;52.270;10.546;2023-02-13T00:51:49;20.63;;;7.90;;
54454;SDS011;40364;52.270;10.546;2023-02-13T00:54:16;16.23;;;6.78;;
54454;SDS011;40364;52.270;10.546;2023-02-13T00:56:42;15.45;;;6.80;;
54454;SDS011;40364;52.270;10.546;2023-02-13T00:59:09;16.52;;;7.55;;
54454;SDS011;40364;52.270;10.546;2023-02-13T01:01:36;16.15;;;7.35;;
54454;SDS011;40364;52.270;10.546;2023-02-13T01:04:03;18.48;;;7.70;;
54454;SDS011;40364;52.270;10.546;2023-02-13T01:06:31;17.15;;;7.40;;
54454;SDS011;40364;52.270;10.546;2023-02-13T01:08:57;16.20;;;7.47;;
54454;SDS011;40364;52.270;10.546;2023-02-13T01:11:24;16.27;;;8.35;;
54454;SDS011;40364;52.270;10.546;2023-02-13T01:13:51;23.38;;;8.00;;
54454;SDS011;40364;52.270;10.546;2023-02-13T01:16:17;17.70;;;7.57;;
54454;SDS011;40364;52.270;10.546;2023-02-13T01:18:44;16.27;;;6.75;;
54454;SDS011;40364;52.270;10.546;2023-02-13T01:21:14;15.63;;;7.70;;
54454;SDS011;40364;52.270;10.546;2023-02-13T01:23:44;17.05;;;7.80;;
54454;SDS011;40364;52.270;10.546;2023-02-13T01:26:12;15.07;;;7.18;;
54454;SDS011;40364;52.270;10.546;2023-02-13T01:28:43;16.80;;;7.10;;
54454;SDS011;40364;52.270;10.546;2023-02-13T01:31:09;16.73;;;7.00;;
54454;SDS011;40364;52.270;10.546;2023-02-13T01:33:36;15.93;;;6.75;;
54454;SDS011;40364;52.270;10.546;2023-02-13T01:36:06;20.38;;;7.55;;
54454;SDS011;40364;52.270;10.546;2023-02-13T01:38:34;22.40;;;7.63;;
54454;SDS011;40364;52.270;10.546;2023-02-13T01:41:02;15.57;;;8.15;;
54454;SDS011;40364;52.270;10.546;2023-02-13T01:43:42;15.25;;;6.28;;
54454;SDS011;40364;52.270;10.546;2023-02-13T01:46:10;14.07;;;6.50;;
54454;SDS011;40364;52.270;10.546;2023-02-13T01:48:38;14.55;;;6.93;;
54454;SDS011;40364;52.270;10.546;2023-02-13T01:51:05;14.23;;;6.65;;
54454;SDS011;40364;52.270;10.546;2023-02-13T01:53:38;15.65;;;6.75;;
54454;SDS011;40364;52.270;10.546;2023-02-13T01:56:10;13.60;;;6.78;;
54454;SDS011;40364;52.270;10.546;2023-02-13T01:58:42;16.05;;;6.70;;
54454;SDS011;40364;52.270;10.546;2023-02-13T02:01:11;16.75;;;6.68;;
54454;SDS011;40364;52.270;10.546;2023-02-13T02:03:38;18.35;;;6.65;;
54454;SDS011;40364;52.270;10.546;2023-02-13T02:06:10;13.68;;;6.45;;
54454;SDS011;40364;52.270;10.546;2023-02-13T02:08:39;17.17;;;6.90;;
54454;SDS011;40364;52.270;10.546;2023-02-13T02:11:08;13.80;;;6.35;;
54454;SDS011;40364;52.270;10.546;2023-02-13T02:13:42;16.55;;;7.32;;
54454;SDS011;40364;52.270;10.546;2023-02-13T02:16:11;14.80;;;6.95;;
54454;SDS011;40364;52.270;10.546;2023-02-13T02:18:38;15.70;;;6.82;;
54454;SDS011;40364;52.270;10.546;2023-02-13T02:24:18;17.85;;;7.15;;
54454;SDS011;40364;52.270;10.546;2023-02-13T02:33:09;13.52;;;6.00;;
54454;SDS011;40364;52.270;10.546;2023-02-13T02:35:45;15.25;;;7.03;;
54454;SDS011;40364;52.270;10.546;2023-02-13T02:38:24;14.75;;;7.18;;
54454;SDS011;40364;52.270;10.546;2023-02-13T02:41:06;18.55;;;7.13;;
54454;SDS011;40364;52.270;10.546;2023-02-13T02:44:03;16.27;;;7.13;;
54454;SDS011;40364;52.270;10.546;2023-02-13T02:46:38;15.05;;;6.80;;
54454;SDS011;40364;52.270;10.546;2023-02-13T02:49:32;21.58;;;7.05;;
54454;SDS011;40364;52.270;10.546;2023-02-13T02:52:23;20.83;;;8.98;;
54454;SDS011;40364;52.270;10.546;2023-02-13T02:54:57;15.95;;;7.40;;
54454;SDS011;40364;52.270;10.546;2023-02-13T02:57:34;17.33;;;6.00;;
54454;SDS011;40364;52.270;10.546;2023-02-13T03:00:22;19.23;;;7.85;;
54454;SDS011;40364;52.270;10.546;2023-02-13T03:03:08;14.60;;;6.38;;
54454;SDS011;40364;52.270;10.546;2023-02-13T03:05:59;17.60;;;7.03;;
54454;SDS011;40364;52.270;10.546;2023-02-13T03:08:38;15.43;;;7.68;;
54454;SDS011;40364;52.270;10.546;2023-02-13T03:11:25;19.10;;;6.95;;
54454;SDS011;40364;52.270;10.546;2023-02-13T03:14:09;19.63;;;7.18;;
54454;SDS011;40364;52.270;10.546;2023-02-13T03:16:39;17.35;;;7.40;;
54454;SDS011;40364;52.270;10.546;2023-02-13T03:19:27;18.55;;;6.97;;
54454;SDS011;40364;52.270;10.546;2023-02-13T03:22:24;16.63;;;7.05;;
54454;SDS011;40364;52.270;10.546;2023-02-13T03:25:04;18.92;;;7.05;;
54454;SDS011;40364;52.270;10.546;2023-02-13T03:27:38;16.27;;;7.32;;
54454;SDS011;40364;52.270;10.546;2023-02-13T03:30:30;15.93;;;6.60;;
54454;SDS011;40364;52.270;10.546;2023-02-13T03:33:09;17.80;;;7.57;;
54454;SDS011;40364;52.270;10.546;2023-02-13T03:35:49;16.85;;;7.07;;
54454;SDS011;40364;52.270;10.546;2023-02-13T03:38:43;20.08;;;7.78;;
54454;SDS011;40364;52.270;10.546;2023-02-13T03:41:18;15.70;;;7.47;;
54454;SDS011;40364;52.270;10.546;2023-02-13T03:44:00;18.65;;;6.60;;
54454;SDS011;40364;52.270;10.546;2023-02-13T03:46:37;13.98;;;6.40;;
54454;SDS011;40364;52.270;10.546;2023-02-13T03:49:07;17.65;;;7.45;;
54454;SDS011;40364;52.270;10.546;2023-02-13T03:51:57;18.75;;;6.85;;
54454;SDS011;40364;52.270;10.546;2023-02-13T03:54:30;14.80;;;6.63;;
54454;SDS011;40364;52.270;10.546;2023-02-13T03:57:19;15.70;;;6.68;;
54454;SDS011;40364;52.270;10.546;2023-02-13T04:00:07;16.67;;;7.20;;
54454;SDS011;40364;52.270;10.546;2023-02-13T04:02:39;14.90;;;6.50;;
54454;SDS011;40364;52.270;10.546;2023-02-13T04:05:14;19.95;;;6.97;;
54454;SDS011;40364;52.270;10.546;2023-02-13T04:07:45;14.40;;;6.63;;
54454;SDS011;40364;52.270;10.546;2023-02-13T04:10:14;14.55;;;6.57;;
54454;SDS011;40364;52.270;10.546;2023-02-13T04:12:45;14.73;;;6.60;;
54454;SDS011;40364;52.270;10.546;2023-02-13T04:15:18;15.50;;;6.55;;
54454;SDS011;40364;52.270;10.546;2023-02-13T04:17:52;12.63;;;6.07;;
54454;SDS011;40364;52.270;10.546;2023-02-13T04:20:25;15.20;;;6.85;;
54454;SDS011;40364;52.270;10.546;2023-02-13T04:22:53;14.88;;;6.45;;
54454;SDS011;40364;52.270;10.546;2023-02-13T04:25:21;15.90;;;6.38;;
54454;SDS011;40364;52.270;10.546;2023-02-13T04:27:48;11.10;;;5.82;;
54454;SDS011;40364;52.270;10.546;2023-02-13T04:30:15;15.35;;;6.28;;
54454;SDS011;40364;52.270;10.546;2023-02-13T04:32:42;20.55;;;6.35;;
54454;SDS011;40364;52.270;10.546;2023-02-13T04:35:08;12.52;;;6.35;;
54454;SDS011;40364;52.270;10.546;2023-02-13T04:37:38;12.02;;;5.82;;
54454;SDS011;40364;52.270;10.546;2023-02-13T04:40:05;11.63;;;5.38;;
54454;SDS011;40364;52.270;10.546;2023-02-13T04:42:33;14.02;;;5.10;;
54454;SDS011;40364;52.270;10.546;2023-02-13T04:45:00;14.90;;;5.65;;
54454;SDS011;40364;52.270;10.546;2023-02-13T04:47:27;14.60;;;5.78;;
54454;SDS011;40364;52.270;10.546;2023-02-13T04:49:53;18.50;;;6.05;;
54454;SDS011;40364;52.270;10.546;2023-02-13T04:52:20;13.57;;;5.50;;
54454;SDS011;40364;52.270;10.546;2023-02-13T04:54:47;17.52;;;6.07;;
54454;SDS011;40364;52.270;10.546;2023-02-13T04:57:13;15.13;;;6.35;;
54454;SDS011;40364;52.270;10.546;2023-02-13T04:59:42;18.67;;;6.95;;
54454;SDS011;40364;52.270;10.546;2023-02-13T05:02:08;15.27;;;6.40;;
54454;SDS011;40364;52.270;10.546;2023-02-13T05:04:35;11.27;;;5.43;;
54454;SDS011;40364;52.270;10.546;2023-02-13T05:07:02;16.23;;;6.03;;
54454;SDS011;40364;52.270;10.546;2023-02-13T05:09:29;13.15;;;6.03;;
54454;SDS011;40364;52.270;10.546;2023-02-13T05:11:55;13.63;;;6.43;;
54454;SDS011;40364;52.270;10.546;2023-02-13T05:14:22;13.77;;;6.13;;
54454;SDS011;40364;52.270;10.546;2023-02-13T05:16:59;13.18;;;5.82;;
54454;SDS011;40364;52.270;10.546;2023-02-13T05:19:26;16.80;;;6.70;;
54454;SDS011;40364;52.270;10.546;2023-02-13T05:21:52;17.25;;;6.25;;
54454;SDS011;40364;52.270;10.546;2023-02-13T05:24:36;18.42;;;6.78;;
54454;SDS011;40364;52.270;10.546;2023-02-13T05:27:03;15.40;;;6.25;;
54454;SDS011;40364;52.270;10.546;2023-02-13T05:29:30;13.38;;;5.35;;
54454;SDS011;40364;52.270;10.546;2023-02-13T05:31:57;11.75;;;5.70;;
54454;SDS011;40364;52.270;10.546;2023-02-13T05:34:26;14.00;;;5.55;;
54454;SDS011;40364;52.270;10.546;2023-02-13T05:36:54;17.98;;;6.68;;
54454;SDS011;40364;52.270;10.546;2023-02-13T05:39:20;16.55;;;6.13;;
54454;SDS011;40364;52.270;10.546;2023-02-13T05:41:50;16.30;;;5.93;;
54454;SDS011;40364;52.270;10.546;2023-02-13T05:44:17;16.75;;;5.93;;
54454;SDS011;40364;52.270;10.546;2023-02-13T05:46:43;18.25;;;7.50;;
54454;SDS011;40364;52.270;10.546;2023-02-13T05:49:10;15.35;;;6.32;;
54454;SDS011;40364;52.270;10.546;2023-02-13T05:51:40;15.05;;;6.10;;
54454;SDS011;40364;52.270;10.546;2023-02-13T05:54:07;14.70;;;6.05;;
54454;SDS011;40364;52.270;10.546;2023-02-13T05:56:33;18.50;;;6.57;;
54454;SDS011;40364;52.270;10.546;2023-02-13T05:59:00;16.08;;;6.40;;
54454;SDS011;40364;52.270;10.546;2023-02-13T06:01:27;22.42;;;6.03;;
54454;SDS011;40364;52.270;10.546;2023-02-13T06:04:00;15.88;;;5.63;;
54454;SDS011;40364;52.270;10.546;2023-02-13T06:06:32;14.15;;;5.53;;
54454;SDS011;40364;52.270;10.546;2023-02-13T06:09:00;19.13;;;6.18;;
54454;SDS011;40364;52.270;10.546;2023-02-13T06:11:27;12.95;;;5.20;;
54454;SDS011;40364;52.270;10.546;2023-02-13T06:13:53;18.83;;;6.85;;
54454;SDS011;40364;52.270;10.546;2023-02-13T06:16:20;13.02;;;5.38;;
54454;SDS011;40364;52.270;10.546;2023-02-13T06:18:47;13.10;;;5.57;;
54454;SDS011;40364;52.270;10.546;2023-02-13T06:21:14;15.00;;;6.05;;
54454;SDS011;40364;52.270;10.546;2023-02-13T06:23:40;13.25;;;5.88;;
54454;SDS011;40364;52.270;10.546;2023-02-13T06:26:09;13.48;;;5.28;;
54454;SDS011;40364;52.270;10.546;2023-02-13T06:28:36;13.93;;;5.63;;
54454;SDS011;40364;52.270;10.546;2023-02-13T06:31:02;15.00;;;5.60;;
54454;SDS011;40364;52.270;10.546;2023-02-13T06:33:30;15.27;;;5.55;;
54454;SDS011;40364;52.270;10.546;2023-02-13T06:35:57;16.58;;;5.40;;
54454;SDS011;40364;52.270;10.546;2023-02-13T06:38:23;15.02;;;6.00;;
54454;SDS011;40364;52.270;10.546;2023-02-13T06:40:50;15.65;;;6.22;;
54454;SDS011;40364;52.270;10.546;2023-02-13T06:43:18;14.45;;;5.72;;
54454;SDS011;40364;52.270;10.546;2023-02-13T06:45:45;14.32;;;6.18;;
54454;SDS011;40364;52.270;10.546;2023-02-13T06:48:12;14.05;;;5.20;;
54454;SDS011;40364;52.270;10.546;2023-02-13T06:50:39;14.30;;;5.53;;
54454;SDS011;40364;52.270;10.546;2023-02-13T06:53:05;14.43;;;5.32;;
54454;SDS011;40364;52.270;10.546;2023-02-13T06:55:32;12.18;;;5.78;;
54454;SDS011;40364;52.270;10.546;2023-02-13T06:57:59;15.50;;;5.65;;
54454;SDS011;40364;52.270;10.546;2023-02-13T07:00:27;13.88;;;5.28;;
54454;SDS011;40364;52.270;10.546;2023-02-13T07:02:53;15.90;;;5.07;;
54454;SDS011;40364;52.270;10.546;2023-02-13T07:05:20;14.40;;;5.35;;
54454;SDS011;40364;52.270;10.546;2023-02-13T07:07:47;14.55;;;5.75;;
54454;SDS011;40364;52.270;10.546;2023-02-13T07:10:13;12.07;;;4.53;;
54454;SDS011;40364;52.270;10.546;2023-02-13T07:12:40;11.13;;;4.68;;
54454;SDS011;40364;52.270;10.546;2023-02-13T07:15:07;12.65;;;5.18;;
54454;SDS011;40364;52.270;10.546;2023-02-13T07:17:36;16.17;;;5.60;;
54454;SDS011;40364;52.270;10.546;2023-02-13T07:20:02;12.07;;;5.57;;
54454;SDS011;40364;52.270;10.546;2023-02-13T07:22:30;9.98;;;4.18;;
54454;SDS011;40364;52.270;10.546;2023-02-13T07:24:58;11.45;;;4.60;;
54454;SDS011;40364;52.270;10.546;2023-02-13T07:27:25;12.25;;;4.70;;
54454;SDS011;40364;52.270;10.546;2023-02-13T07:29:53;13.55;;;5.00;;
54454;SDS011;40364;52.270;10.546;2023-02-13T07:32:21;11.30;;;4.50;;
54454;SDS011;40364;52.270;10.546;2023-02-13T07:34:49;16.35;;;5.15;;
54454;SDS011;40364;52.270;10.546;2023-02-13T07:37:15;11.55;;;4.40;;
54454;SDS011;40364;52.270;10.546;2023-02-13T07:39:42;10.68;;;4.53;;
54454;SDS011;40364;52.270;10.546;2023-02-13T07:42:09;10.65;;;4.28;;
54454;SDS011;40364;52.270;10.546;2023-02-13T07:44:35;12.93;;;4.35;;
54454;SDS011;40364;52.270;10.546;2023-02-13T07:47:02;13.98;;;4.53;;
54454;SDS011;40364;52.270;10.546;2023-02-13T07:49:29;10.55;;;4.15;;
54454;SDS011;40364;52.270;10.546;2023-02-13T07:51:57;10.18;;;4.63;;
54454;SDS011;40364;52.270;10.546;2023-02-13T07:54:23;8.48;;;3.30;;
54454;SDS011;40364;52.270;10.546;2023-02-13T07:56:50;10.82;;;4.20;;
54454;SDS011;40364;52.270;10.546;2023-02-13T07:59:17;9.75;;;3.78;;
54454;SDS011;40364;52.270;10.546;2023-02-13T08:01:43;8.85;;;4.38;;
54454;SDS011;40364;52.270;10.546;2023-02-13T08:04:10;8.82;;;3.42;;
54454;SDS011;40364;52.270;10.546;2023-02-13T08:06:37;9.75;;;3.90;;
54454;SDS011;40364;52.270;10.546;2023-02-13T08:09:06;11.60;;;4.22;;
54454;SDS011;40364;52.270;10.546;2023-02-13T08:11:50;8.50;;;3.72;;
54454;SDS011;40364;52.270;10.546;2023-02-13T08:14:21;10.35;;;4.65;;
54454;SDS011;40364;52.270;10.546;2023-02-13T08:16:50;13.10;;;4.60;;
54454;SDS011;40364;52.270;10.546;2023-02-13T08:19:17;8.45;;;4.28;;
54454;SDS011;40364;52.270;10.546;2023-02-13T08:21:44;9.20;;;4.10;;
54454;SDS011;40364;52.270;10.546;2023-02-13T08:24:12;13.20;;;4.53;;
54454;SDS011;40364;52.270;10.546;2023-02-13T08:26:39;11.30;;;4.90;;
54454;SDS011;40364;52.270;10.546;2023-02-13T08:29:06;8.93;;;3.85;;
54454;SDS011;40364;52.270;10.546;2023-02-13T08:31:33;13.75;;;4.63;;
54454;SDS011;40364;52.270;10.546;2023-02-13T08:33:59;12.65;;;4.28;;
54454;SDS011;40364;52.270;10.546;2023-02-13T08:36:26;10.75;;;4.57;;
54454;SDS011;40364;52.270;10.546;2023-02-13T08:38:53;9.80;;;4.45;;
54454;SDS011;40364;52.270;10.546;2023-02-13T08:41:21;10.48;;;4.43;;
54454;SDS011;40364;52.270;10.546;2023-02-13T08:43:48;8.90;;;4.63;;
54454;SDS011;40364;52.270;10.546;2023-02-13T08:46:15;11.77;;;5.05;;
54454;SDS011;40364;52.270;10.546;2023-02-13T08:48:42;12.05;;;4.78;;
54454;SDS011;40364;52.270;10.546;2023-02-13T08:51:10;13.43;;;5.82;;
54454;SDS011;40364;52.270;10.546;2023-02-13T08:53:38;14.18;;;5.25;;
54454;SDS011;40364;52.270;10.546;2023-02-13T08:56:06;14.18;;;5.75;;
54454;SDS011;40364;52.270;10.546;2023-02-13T08:58:34;11.45;;;4.95;;
54454;SDS011;40364;52.270;10.546;2023-02-13T09:01:03;12.10;;;5.18;;
54454;SDS011;40364;52.270;10.546;2023-02-13T09:03:30;13.70;;;5.43;;
54454;SDS011;40364;52.270;10.546;2023-02-13T09:05:57;12.27;;;5.35;;
54454;SDS011;40364;52.270;10.546;2023-02-13T09:08:25;9.90;;;4.82;;
54454;SDS011;40364;52.270;10.546;2023-02-13T09:10:54;8.32;;;3.90;;
54454;SDS011;40364;52.270;10.546;2023-02-13T09:13:22;7.28;;;3.67;;
54454;SDS011;40364;52.270;10.546;2023-02-13T09:15:51;7.95;;;3.35;;
54454;SDS011;40364;52.270;10.546;2023-02-13T09:18:17;6.60;;;3.08;;
54454;SDS011;40364;52.270;10.546;2023-02-13T09:20:44;7.55;;;3.22;;
54454;SDS011;40364;52.270;10.546;2023-02-13T09:23:11;7.72;;;3.20;;
54454;SDS011;40364;52.270;10.546;2023-02-13T09:25:37;7.25;;;3.30;;
54454;SDS011;40364;52.270;10.546;2023-02-13T09:28:04;6.90;;;2.92;;
54454;SDS011;40364;52.270;10.546;2023-02-13T09:30:31;10.35;;;3.85;;
54454;SDS011;40364;52.270;10.546;2023-02-13T09:32:59;5.55;;;2.67;;
54454;SDS011;40364;52.270;10.546;2023-02-13T09:35:25;8.18;;;3.25;;
54454;SDS011;40364;52.270;10.546;2023-02-13T09:37:53;6.68;;;3.47;;
54454;SDS011;40364;52.270;10.546;2023-02-13T09:40:21;5.95;;;2.58;;
54454;SDS011;40364;52.270;10.546;2023-02-13T09:42:51;5.82;;;2.95;;
54454;SDS011;40364;52.270;10.546;2023-02-13T09:45:22;3.03;;;1.77;;
54454;SDS011;40364;52.270;10.546;2023-02-13T09:47:48;5.07;;;2.65;;
54454;SDS011;40364;52.270;10.546;2023-02-13T09:50:18;3.85;;;2.20;;
54454;SDS011;40364;52.270;10.546;2023-02-13T09:52:48;4.80;;;2.42;;
54454;SDS011;40364;52.270;10.546;2023-02-13T09:55:18;4.40;;;2.63;;
54454;SDS011;40364;52.270;10.546;2023-02-13T09:57:50;5.00;;;2.55;;
54454;SDS011;40364;52.270;10.546;2023-02-13T10:00:23;4.18;;;2.08;;
54454;SDS011;40364;52.270;10.546;2023-02-13T10:03:06;4.78;;;2.10;;
54454;SDS011;40364;52.270;10.546;2023-02-13T10:05:47;3.78;;;2.20;;
54454;SDS011;40364;52.270;10.546;2023-02-13T10:08:33;2.83;;;1.85;;
54454;SDS011;40364;52.270;10.546;2023-02-13T10:11:12;3.35;;;2.03;;
54454;SDS011;40364;52.270;10.546;2023-02-13T10:13:58;3.78;;;2.10;;
54454;SDS011;40364;52.270;10.546;2023-02-13T10:16:32;2.85;;;1.92;;
54454;SDS011;40364;52.270;10.546;2023-02-13T10:19:03;2.83;;;1.95;;
54454;SDS011;40364;52.270;10.546;2023-02-13T10:21:39;2.58;;;1.77;;
54454;SDS011;40364;52.270;10.546;2023-02-13T10:26:42;6.13;;;1.98;;
54454;SDS011;40364;52.270;10.546;2023-02-13T10:29:14;3.40;;;2.03;;
54454;SDS011;40364;52.270;10.546;2023-02-13T10:32:03;3.03;;;1.77;;
54454;SDS011;40364;52.270;10.546;2023-02-13T10:34:36;3.60;;;1.67;;
54454;SDS011;40364;52.270;10.546;2023-02-13T10:37:09;4.10;;;2.17;;
54454;SDS011;40364;52.270;10.546;2023-02-13T10:39:39;3.97;;;1.75;;
54454;SDS011;40364;52.270;10.546;2023-02-13T10:42:10;3.58;;;1.88;;
54454;SDS011;40364;52.270;10.546;2023-02-13T10:44:49;8.85;;;2.72;;
54454;SDS011;40364;52.270;10.546;2023-02-13T10:47:28;5.57;;;3.15;;
54454;SDS011;40364;52.270;10.546;2023-02-13T10:50:11;7.97;;;2.95;;
54454;SDS011;40364;52.270;10.546;2023-02-13T10:52:49;8.05;;;3.10;;
54454;SDS011;40364;52.270;10.546;2023-02-13T10:55:40;6.75;;;2.25;;
54454;SDS011;40364;52.270;10.546;2023-02-13T10:58:23;3.90;;;2.35;;
54454;SDS011;40364;52.270;10.546;2023-02-13T11:00:57;8.10;;;3.75;;
54454;SDS011;40364;52.270;10.546;2023-02-13T11:03:30;7.88;;;3.45;;
54454;SDS011;40364;52.270;10.546;2023-02-13T11:05:56;7.15;;;3.90;;
54454;SDS011;40364;52.270;10.546;2023-02-13T11:08:29;6.85;;;2.95;;
54454;SDS011;40364;52.270;10.546;2023-02-13T11:10:58;10.02;;;3.00;;
54454;SDS011;40364;52.270;10.546;2023-02-13T11:13:26;4.30;;;2.20;;
54454;SDS011;40364;52.270;10.546;2023-02-13T11:15:57;3.70;;;1.90;;
54454;SDS011;40364;52.270;10.546;2023-02-13T11:18:27;4.78;;;2.28;;
54454;SDS011;40364;52.270;10.546;2023-02-13T11:21:04;4.63;;;1.83;;
54454;SDS011;40364;52.270;10.546;2023-02-13T11:23:36;6.60;;;3.13;;
54454;SDS011;40364;52.270;10.546;2023-02-13T11:26:06;5.38;;;2.40;;
54454;SDS011;40364;52.270;10.546;2023-02-13T11:28:35;8.48;;;3.20;;
54454;SDS011;40364;52.270;10.546;2023-02-13T11:31:08;7.20;;;3.78;;
54454;SDS011;40364;52.270;10.546;2023-02-13T11:33:37;6.18;;;3.13;;
54454;SDS011;40364;52.270;10.546;2023-02-13T11:36:05;2.90;;;1.90;;
54454;SDS011;40364;52.270;10.546;2023-02-13T11:38:34;3.70;;;1.42;;
54454;SDS011;40364;52.270;10.546;2023-02-13T11:41:03;4.82;;;1.27;;
54454;SDS011;40364;52.270;10.546;2023-02-13T11:43:34;3.85;;;1.20;;
54454;SDS011;40364;52.270;10.546;2023-02-13T11:46:03;2.58;;;1.20;;
54454;SDS011;40364;52.270;10.546;2023-02-13T11:48:33;4.45;;;1.98;;
54454;SDS011;40364;52.270;10.546;2023-02-13T11:51:00;2.15;;;1.15;;
54454;SDS011;40364;52.270;10.546;2023-02-13T11:53:28;2.38;;;1.13;;
54454;SDS011;40364;52.270;10.546;2023-02-13T11:56:02;1.23;;;1.00;;
54454;SDS011;40364;52.270;10.546;2023-02-13T11:58:31;2.90;;;0.85;;
54454;SDS011;40364;52.270;10.546;2023-02-13T12:01:07;0.88;;;0.70;;
54454;SDS011;40364;52.270;10.546;2023-02-13T12:04:02;2.22;;;1.00;;
54454;SDS011;40364;52.270;10.546;2023-02-13T12:06:31;2.33;;;1.10;;
54454;SDS011;40364;52.270;10.546;2023-02-13T12:09:04;4.10;;;1.10;;
54454;SDS011;40364;52.270;10.546;2023-02-13T12:11:38;2.67;;;1.13;;
54454;SDS011;40364;52.270;10.546;2023-02-13T12:14:08;2.58;;;1.05;;
54454;SDS011;40364;52.270;10.546;2023-02-13T12:16:39;2.17;;;1.30;;
54454;SDS011;40364;52.270;10.546;2023-02-13T12:19:12;3.15;;;1.80;;
54454;SDS011;40364;52.270;10.546;2023-02-13T12:21:52;2.78;;;0.93;;
54454;SDS011;40364;52.270;10.546;2023-02-13T12:24:50;2.40;;;1.20;;
54454;SDS011;40364;52.270;10.546;2023-02-13T12:27:41;2.13;;;1.17;;
54454;SDS011;40364;52.270;10.546;2023-02-13T12:30:35;1.23;;;0.95;;
54454;SDS011;40364;52.270;10.546;2023-02-13T12:33:24;2.28;;;1.60;;
54454;SDS011;40364;52.270;10.546;2023-02-13T12:36:04;1.88;;;1.05;;
54454;SDS011;40364;52.270;10.546;2023-02-13T12:38:43;2.53;;;1.17;;
54454;SDS011;40364;52.270;10.546;2023-02-13T12:41:19;2.05;;;1.30;;
54454;SDS011;40364;52.270;10.546;2023-02-13T12:47:01;2.25;;;1.20;;
54454;SDS011;40364;52.270;10.546;2023-02-13T12:52:40;1.80;;;1.42;;
54454;SDS011;40364;52.270;10.546;2023-02-13T12:58:17;5.32;;;1.77;;
54454;SDS011;40364;52.270;10.546;2023-02-13T13:01:03;1.88;;;1.02;;
54454;SDS011;40364;52.270;10.546;2023-02-13T13:03:44;2.95;;;1.38;;
54454;SDS011;40364;52.270;10.546;2023-02-13T13:06:20;3.75;;;1.60;;
54454;SDS011;40364;52.270;10.546;2023-02-13T13:09:02;1.92;;;1.30;;
54454;SDS011;40364;52.270;10.546;2023-02-13T13:11:46;2.13;;;1.48;;
54454;SDS011;40364;52.270;10.546;2023-02-13T13:14:25;2.25;;;1.30;;
54454;SDS011;40364;52.270;10.546;2023-02-13T13:17:03;3.50;;;1.48;;
54454;SDS011;40364;52.270;10.546;2023-02-13T13:19:40;2.30;;;1.60;;
54454;SDS011;40364;52.270;10.546;2023-02-13T13:22:14;2.17;;;1.48;;
54454;SDS011;40364;52.270;10.546;2023-02-13T13:24:52;5.38;;;1.70;;
54454;SDS011;40364;52.270;10.546;2023-02-13T13:27:29;4.95;;;1.75;;
54454;SDS011;40364;52.270;10.546;2023-02-13T13:30:00;6.20;;;1.75;;
54454;SDS011;40364;52.270;10.546;2023-02-13T13:32:31;3.45;;;2.17;;
54454;SDS011;40364;52.270;10.546;2023-02-13T13:34:59;4.50;;;1.95;;
54454;SDS011;40364;52.270;10.546;2023-02-13T13:37:29;4.40;;;1.77;;
54454;SDS011;40364;52.270;10.546;2023-02-13T13:40:02;4.00;;;2.20;;
54454;SDS011;40364;52.270;10.546;2023-02-13T13:42:46;3.00;;;2.05;;
54454;SDS011;40364;52.270;10.546;2023-02-13T13:45:21;3.55;;;2.33;;
54454;SDS011;40364;52.270;10.546;2023-02-13T13:47:59;3.33;;;2.20;;
54454;SDS011;40364;52.270;10.546;2023-02-13T13:50:42;5.03;;;2.45;;
54454;SDS011;40364;52.270;10.546;2023-02-13T13:53:11;3.67;;;1.95;;
54454;SDS011;40364;52.270;10.546;2023-02-13T13:56:02;6.47;;;2.92;;
54454;SDS011;40364;52.270;10.546;2023-02-13T13:58:42;5.88;;;2.67;;
54454;SDS011;40364;52.270;10.546;2023-02-13T14:01:22;4.00;;;2.42;;
54454;SDS011;40364;52.270;10.546;2023-02-13T14:03:53;6.95;;;2.60;;
54454;SDS011;40364;52.270;10.546;2023-02-13T14:06:21;6.53;;;2.88;;
54454;SDS011;40364;52.270;10.546;2023-02-13T14:09:00;4.78;;;2.58;;
54454;SDS011;40364;52.270;10.546;2023-02-13T14:11:39;6.97;;;2.72;;
54454;SDS011;40364;52.270;10.546;2023-02-13T14:17:15;4.60;;;3.25;;
54454;SDS011;40364;52.270;10.546;2023-02-13T14:19:46;5.03;;;2.58;;
54454;SDS011;40364;52.270;10.546;2023-02-13T14:25:17;6.28;;;2.70;;
54454;SDS011;40364;52.270;10.546;2023-02-13T14:27:54;5.18;;;2.42;;
54454;SDS011;40364;52.270;10.546;2023-02-13T14:30:25;5.25;;;2.72;;
54454;SDS011;40364;52.270;10.546;2023-02-13T14:32:54;4.78;;;3.00;;
54454;SDS011;40364;52.270;10.546;2023-02-13T14:35:24;5.00;;;2.65;;
54454;SDS011;40364;52.270;10.546;2023-02-13T14:37:53;7.50;;;3.13;;
54454;SDS011;40364;52.270;10.546;2023-02-13T14:46:02;4.85;;;2.88;;
54454;SDS011;40364;52.270;10.546;2023-02-13T14:48:39;8.95;;;3.47;;
54454;SDS011;40364;52.270;10.546;2023-02-13T14:51:14;5.55;;;3.65;;
54454;SDS011;40364;52.270;10.546;2023-02-13T14:53:53;6.20;;;3.10;;
54454;SDS011;40364;52.270;10.546;2023-02-13T14:56:24;7.10;;;3.15;;
54454;SDS011;40364;52.270;10.546;2023-02-13T14:58:52;5.57;;;3.40;;
54454;SDS011;40364;52.270;10.546;2023-02-13T15:01:25;5.90;;;3.33;;
54454;SDS011;40364;52.270;10.546;2023-02-13T15:03:57;6.82;;;3.92;;
54454;SDS011;40364;52.270;10.546;2023-02-13T15:06:32;6.72;;;4.03;;
54454;SDS011;40364;52.270;10.546;2023-02-13T15:09:04;7.85;;;3.92;;
54454;SDS011;40364;52.270;10.546;2023-02-13T15:11:40;7.07;;;4.28;;
54454;SDS011;40364;52.270;10.546;2023-02-13T15:14:24;12.63;;;4.72;;
54454;SDS011;40364;52.270;10.546;2023-02-13T15:16:58;9.00;;;4.65;;
54454;SDS011;40364;52.270;10.546;2023-02-13T15:19:30;9.43;;;4.50;;
54454;SDS011;40364;52.270;10.546;2023-02-13T15:22:01;11.13;;;4.75;;
54454;SDS011;40364;52.270;10.546;2023-02-13T15:24:34;7.20;;;4.30;;